Time;durP1;ratioP1;P1;durP2;ratioP2;P2;SDS_P1;SDS_P2;PMS_P1;PMS_P2;Temp;Humidity;BMP_temperature;BMP_pressure;BME280_temperature;BME280_humidity;BME280_pressure;Samples;Min_cycle;Max_cycle;Signal;HPM_P1;HPM_P2
2022/08/16 00:00:36;;;;;;;;;12.50;12.50;;;;;;;;5075754;27;45519;-72
2022/08/16 00:03:01;;;;;;;;;15.00;15.00;;;;;;;;5075345;27;45418;-72
2022/08/16 00:05:27;;;;;;;;;14.00;14.00;;;;;;;;5075436;28;45447;-72
2022/08/16 00:07:53;;;;;;;;;13.00;13.00;;;;;;;;5076094;27;45354;-72
2022/08/16 00:10:19;;;;;;;;;13.50;13.50;;;;;;;;5075581;27;45338;-72
2022/08/16 00:12:44;;;;;;;;;12.50;12.50;;;;;;;;5075719;28;47152;-72
2022/08/16 00:15:11;;;;;;;;;15.75;15.75;;;;;;;;5075514;27;45347;-72
2022/08/16 00:17:36;;;;;;;;;14.25;14.25;;;;;;;;5075327;28;45435;-71
2022/08/16 00:20:07;;;;;;;;;12.75;12.75;;;;;;;;5075688;28;45271;-71
2022/08/16 00:22:32;;;;;;;;;15.25;14.25;;;;;;;;5075503;28;46441;-72
2022/08/16 00:24:57;;;;;;;;;15.00;15.00;;;;;;;;5075151;28;45378;-72
2022/08/16 00:27:23;;;;;;;;;17.75;17.75;;;;;;;;5075530;27;45474;-72
2022/08/16 00:29:49;;;;;;;;;15.00;15.00;;;;;;;;5075092;28;45332;-72
2022/08/16 00:32:14;;;;;;;;;17.00;17.00;;;;;;;;5075603;28;46153;-72
2022/08/16 00:34:39;;;;;;;;;16.00;14.75;;;;;;;;5075201;28;45463;-72
2022/08/16 00:37:05;;;;;;;;;15.50;14.50;;;;;;;;5075701;27;45531;-72
2022/08/16 00:39:30;;;;;;;;;12.75;12.00;;;;;;;;5075583;27;45434;-72
2022/08/16 00:41:55;;;;;;;;;14.00;14.00;;;;;;;;5075122;28;46457;-72
2022/08/16 00:44:21;;;;;;;;;12.75;12.75;;;;;;;;5078217;27;45371;-72
2022/08/16 00:46:50;;;;;;;;;14.00;13.50;;;;;;;;5079366;27;45435;-72
2022/08/16 00:49:15;;;;;;;;;14.00;13.75;;;;;;;;5078852;27;45537;-72
2022/08/16 00:51:41;;;;;;;;;16.00;16.00;;;;;;;;5078612;27;47162;-72
2022/08/16 00:54:07;;;;;;;;;18.50;13.75;;;;;;;;5078677;27;45503;-71
2022/08/16 00:56:34;;;;;;;;;14.50;13.00;;;;;;;;5078998;27;45331;-72
2022/08/16 00:59:00;;;;;;;;;16.00;16.00;;;;;;;;5078540;27;45277;-72
2022/08/16 01:01:26;;;;;;;;;11.00;10.75;;;;;;;;5078118;27;45529;-72
2022/08/16 01:03:52;;;;;;;;;13.00;13.00;;;;;;;;5078951;27;45256;-72
2022/08/16 01:06:18;;;;;;;;;14.25;14.25;;;;;;;;5078687;27;45360;-72
2022/08/16 01:08:44;;;;;;;;;13.75;13.75;;;;;;;;5078238;27;45296;-72
2022/08/16 01:11:10;;;;;;;;;14.75;14.50;;;;;;;;5078357;27;46460;-72
2022/08/16 01:13:36;;;;;;;;;13.50;13.00;;;;;;;;5077799;27;45427;-72
2022/08/16 01:16:01;;;;;;;;;13.00;13.00;;;;;;;;5078917;27;45494;-72
2022/08/16 01:18:35;;;;;;;;;14.50;14.50;;;;;;;;5078575;27;45450;-72
2022/08/16 01:21:09;;;;;;;;;15.25;15.25;;;;;;;;5078339;27;46214;-72
2022/08/16 01:23:49;;;;;;;;;15.75;15.75;;;;;;;;5078217;27;45361;-72
2022/08/16 01:26:15;;;;;;;;;13.00;13.00;;;;;;;;5078308;27;45342;-72
2022/08/16 01:28:42;;;;;;;;;12.75;12.75;;;;;;;;5077933;27;45387;-72
2022/08/16 01:31:09;;;;;;;;;14.25;13.50;;;;;;;;5078218;27;46170;-72
2022/08/16 01:33:34;;;;;;;;;14.25;13.00;;;;;;;;5077806;27;45301;-72
2022/08/16 01:36:01;;;;;;;;;15.50;15.50;;;;;;;;5078081;27;45404;-72
2022/08/16 01:38:29;;;;;;;;;13.75;13.75;;;;;;;;5078439;27;45329;-72
2022/08/16 01:41:02;;;;;;;;;12.25;10.75;;;;;;;;5077905;27;46078;-72
2022/08/16 01:43:28;;;;;;;;;17.50;15.50;;;;;;;;5064352;27;45375;-72
2022/08/16 01:45:57;;;;;;;;;14.00;13.25;;;;;;;;5077929;27;45328;-72
2022/08/16 01:48:24;;;;;;;;;15.00;14.25;;;;;;;;5077984;27;45284;-72
2022/08/16 01:50:50;;;;;;;;;16.00;14.00;;;;;;;;5077625;27;46389;-72
2022/08/16 01:53:16;;;;;;;;;12.25;12.25;;;;;;;;5077522;27;45511;-72
2022/08/16 01:55:43;;;;;;;;;12.25;12.25;;;;;;;;5077991;27;45313;-72
2022/08/16 01:58:08;;;;;;;;;12.75;12.75;;;;;;;;5077368;27;45430;-72
2022/08/16 02:00:33;;;;;;;;;13.75;13.75;;;;;;;;5077504;27;46025;-73
2022/08/16 02:02:59;;;;;;;;;16.00;16.00;;;;;;;;5059548;28;45427;-72
2022/08/16 02:05:24;;;;;;;;;16.00;14.75;;;;;;;;5077866;27;45450;-72
2022/08/16 02:07:49;;;;;;;;;14.00;14.00;;;;;;;;5078354;27;45471;-72
2022/08/16 02:10:15;;;;;;;;;12.75;12.75;;;;;;;;5078076;27;46193;-72
2022/08/16 02:12:41;;;;;;;;;14.50;14.50;;;;;;;;5077167;27;45431;-72
2022/08/16 02:15:07;;;;;;;;;13.75;12.50;;;;;;;;5077341;27;45481;-72
2022/08/16 02:17:32;;;;;;;;;16.00;12.00;;;;;;;;5077164;27;45574;-72
2022/08/16 02:19:57;;;;;;;;;17.00;15.00;;;;;;;;5059291;28;47022;-72
2022/08/16 02:22:23;;;;;;;;;14.25;14.25;;;;;;;;5077516;27;45533;-72
2022/08/16 02:24:49;;;;;;;;;14.25;13.00;;;;;;;;5087075;27;45205;-72
2022/08/16 02:27:14;;;;;;;;;13.75;13.75;;;;;;;;5091114;27;45322;-72
2022/08/16 02:29:40;;;;;;;;;16.25;14.25;;;;;;;;5085064;27;47070;-72
2022/08/16 02:32:05;;;;;;;;;16.00;16.00;;;;;;;;5086294;27;45422;-72
2022/08/16 02:34:31;;;;;;;;;12.75;12.75;;;;;;;;5077692;27;45343;-72
2022/08/16 02:36:56;;;;;;;;;16.00;13.00;;;;;;;;5077468;27;45323;-72
2022/08/16 02:39:21;;;;;;;;;16.75;16.00;;;;;;;;5077315;27;45925;-72
2022/08/16 02:41:48;;;;;;;;;16.50;15.75;;;;;;;;5076799;27;45410;-72
2022/08/16 02:44:14;;;;;;;;;16.25;15.00;;;;;;;;5077440;28;45357;-72
2022/08/16 02:46:42;;;;;;;;;13.25;13.25;;;;;;;;5076878;27;45479;-72
2022/08/16 02:49:08;;;;;;;;;13.50;13.50;;;;;;;;5077058;27;47360;-72
2022/08/16 02:51:33;;;;;;;;;14.75;14.75;;;;;;;;5058802;28;45471;-73
2022/08/16 02:53:59;;;;;;;;;14.00;12.25;;;;;;;;5077207;27;45281;-72
2022/08/16 02:56:24;;;;;;;;;14.50;14.50;;;;;;;;5076316;27;45377;-72
2022/08/16 02:58:51;;;;;;;;;14.75;14.75;;;;;;;;5076903;28;47170;-72
2022/08/16 03:01:20;;;;;;;;;16.50;14.25;;;;;;;;5076910;27;45551;-71
2022/08/16 03:03:45;;;;;;;;;13.25;12.75;;;;;;;;5076821;28;45418;-72
2022/08/16 03:06:10;;;;;;;;;16.25;16.25;;;;;;;;5076102;27;45698;-72
2022/08/16 03:08:36;;;;;;;;;15.25;14.25;;;;;;;;5076477;27;46126;-72
2022/08/16 03:11:01;;;;;;;;;14.75;14.25;;;;;;;;5076453;28;45367;-72
2022/08/16 03:13:26;;;;;;;;;15.25;14.75;;;;;;;;5076403;27;45484;-72
2022/08/16 03:15:51;;;;;;;;;15.50;14.00;;;;;;;;5076931;27;45306;-72
2022/08/16 03:18:17;;;;;;;;;15.00;15.00;;;;;;;;5058393;28;45970;-72
2022/08/16 03:20:42;;;;;;;;;16.25;16.25;;;;;;;;5076633;27;46122;-72
2022/08/16 03:23:07;;;;;;;;;15.75;15.75;;;;;;;;5076926;27;45450;-72
2022/08/16 03:25:33;;;;;;;;;14.50;14.00;;;;;;;;5076016;28;45312;-72
2022/08/16 03:27:58;;;;;;;;;17.50;16.50;;;;;;;;5076163;27;46879;-72
2022/08/16 03:30:25;;;;;;;;;14.75;14.00;;;;;;;;5076570;27;45433;-72
2022/08/16 03:32:50;;;;;;;;;13.25;13.25;;;;;;;;5076619;27;45331;-72
2022/08/16 03:35:17;;;;;;;;;16.25;16.25;;;;;;;;5076721;27;45315;-72
2022/08/16 03:37:44;;;;;;;;;14.00;14.00;;;;;;;;5075587;27;48248;-72
2022/08/16 03:40:10;;;;;;;;;13.25;13.25;;;;;;;;5076064;28;45386;-72
2022/08/16 03:42:35;;;;;;;;;16.75;16.50;;;;;;;;5076273;28;45385;-72
2022/08/16 03:45:01;;;;;;;;;14.25;13.25;;;;;;;;5076171;27;45415;-72
2022/08/16 03:47:28;;;;;;;;;11.50;11.50;;;;;;;;5076194;27;46407;-72
2022/08/16 03:49:54;;;;;;;;;13.75;13.75;;;;;;;;5075837;27;45387;-72
2022/08/16 03:52:20;;;;;;;;;17.25;13.75;;;;;;;;5076243;27;45360;-72
2022/08/16 03:54:47;;;;;;;;;16.00;15.00;;;;;;;;5075905;27;45357;-72
2022/08/16 03:57:12;;;;;;;;;19.00;16.75;;;;;;;;5076050;28;46080;-73
2022/08/16 03:59:37;;;;;;;;;16.75;16.75;;;;;;;;5076001;27;45347;-72
2022/08/16 04:02:02;;;;;;;;;17.25;14.50;;;;;;;;5076310;28;45320;-72
2022/08/16 04:04:28;;;;;;;;;14.00;13.25;;;;;;;;5076049;28;45451;-72
2022/08/16 04:06:53;;;;;;;;;16.00;16.00;;;;;;;;5075629;27;47252;-72
2022/08/16 04:09:18;;;;;;;;;14.50;14.50;;;;;;;;5076030;27;45556;-72
2022/08/16 04:11:43;;;;;;;;;13.25;13.25;;;;;;;;5076114;27;45565;-72
2022/08/16 04:14:08;;;;;;;;;13.50;13.50;;;;;;;;5076542;27;45286;-72
2022/08/16 04:16:34;;;;;;;;;13.00;13.00;;;;;;;;5075213;27;46842;-72
2022/08/16 04:18:59;;;;;;;;;16.00;15.50;;;;;;;;5075059;27;45526;-72
2022/08/16 04:21:24;;;;;;;;;12.25;12.25;;;;;;;;5076249;27;45359;-72
2022/08/16 04:23:49;;;;;;;;;16.25;16.25;;;;;;;;5057102;27;45325;-72
2022/08/16 04:26:16;;;;;;;;;14.25;14.25;;;;;;;;5075767;28;45550;-72
2022/08/16 04:28:41;;;;;;;;;16.00;16.00;;;;;;;;5075301;27;45439;-72
2022/08/16 04:31:06;;;;;;;;;17.00;14.25;;;;;;;;5075643;27;45355;-72
2022/08/16 04:33:32;;;;;;;;;15.00;15.00;;;;;;;;5075630;27;45314;-72
2022/08/16 04:35:57;;;;;;;;;13.00;13.00;;;;;;;;5075241;28;46284;-72
2022/08/16 04:38:24;;;;;;;;;14.00;14.00;;;;;;;;5075215;28;45345;-72
2022/08/16 04:40:49;;;;;;;;;17.00;16.75;;;;;;;;5075588;28;45221;-72
2022/08/16 04:43:14;;;;;;;;;17.75;16.50;;;;;;;;5075673;28;45359;-73
2022/08/16 04:45:41;;;;;;;;;16.00;16.00;;;;;;;;5075535;28;45364;-72
2022/08/16 04:48:07;;;;;;;;;14.75;14.75;;;;;;;;5075262;27;45476;-72
2022/08/16 04:50:33;;;;;;;;;14.50;13.25;;;;;;;;5075709;27;45364;-72
2022/08/16 04:52:58;;;;;;;;;16.50;16.50;;;;;;;;5075225;27;45382;-72
2022/08/16 04:55:25;;;;;;;;;16.00;16.00;;;;;;;;5075225;28;46152;-72
2022/08/16 04:57:51;;;;;;;;;17.75;16.75;;;;;;;;5074967;28;45494;-72
2022/08/16 05:00:18;;;;;;;;;17.00;16.25;;;;;;;;5081132;27;45412;-72
2022/08/16 05:02:44;;;;;;;;;16.25;13.25;;;;;;;;5095842;27;45357;-72
2022/08/16 05:05:09;;;;;;;;;13.50;13.25;;;;;;;;5094968;27;45994;-72
2022/08/16 05:07:35;;;;;;;;;13.25;13.25;;;;;;;;5113114;27;45339;-72
2022/08/16 05:10:00;;;;;;;;;14.25;14.25;;;;;;;;5113160;27;45385;-72
2022/08/16 05:12:25;;;;;;;;;13.75;13.75;;;;;;;;5114119;27;45479;-72
2022/08/16 05:14:50;;;;;;;;;12.75;12.50;;;;;;;;5111001;27;46123;-72
2022/08/16 05:17:16;;;;;;;;;15.50;15.50;;;;;;;;5115975;27;45392;-72
2022/08/16 05:19:41;;;;;;;;;15.00;14.50;;;;;;;;5115932;27;45343;-73
2022/08/16 05:22:06;;;;;;;;;16.50;15.50;;;;;;;;5116214;27;45325;-72
2022/08/16 05:24:32;;;;;;;;;13.75;13.75;;;;;;;;5111736;27;45619;-72
2022/08/16 05:26:57;;;;;;;;;12.25;12.25;;;;;;;;5101501;27;45700;-72
2022/08/16 05:29:22;;;;;;;;;14.00;14.00;;;;;;;;5103988;27;45385;-72
2022/08/16 05:31:47;;;;;;;;;23.75;23.25;;;;;;;;5106018;27;45410;-78
2022/08/16 05:34:12;;;;;;;;;26.00;22.50;;;;;;;;5096046;27;45410;-81
2022/08/16 05:36:37;;;;;;;;;20.75;20.75;;;;;;;;5093422;27;45418;-76
2022/08/16 05:39:04;;;;;;;;;17.00;16.50;;;;;;;;5088832;27;45299;-77
2022/08/16 05:41:29;;;;;;;;;16.75;16.75;;;;;;;;5091199;27;45484;-82
2022/08/16 05:43:55;;;;;;;;;20.00;19.25;;;;;;;;5095322;27;45951;-72
2022/08/16 05:46:20;;;;;;;;;21.50;21.50;;;;;;;;5092331;27;45375;-71
2022/08/16 05:48:45;;;;;;;;;21.00;20.50;;;;;;;;5089647;27;45311;-72
2022/08/16 05:51:10;;;;;;;;;20.00;19.75;;;;;;;;5094906;27;45421;-72
2022/08/16 05:53:36;;;;;;;;;21.50;19.50;;;;;;;;5098243;27;47153;-72
2022/08/16 05:56:01;;;;;;;;;20.75;20.00;;;;;;;;5097025;27;45374;-72
2022/08/16 05:58:27;;;;;;;;;19.00;19.00;;;;;;;;5095302;27;45527;-72
2022/08/16 06:00:52;;;;;;;;;23.00;20.75;;;;;;;;5085624;27;45787;-72
2022/08/16 06:03:17;;;;;;;;;24.75;23.25;;;;;;;;5076932;27;45395;-71
2022/08/16 06:05:42;;;;;;;;;25.00;20.50;;;;;;;;5077399;28;45627;-71
2022/08/16 06:08:07;;;;;;;;;19.50;19.50;;;;;;;;5077351;27;45540;-71
2022/08/16 06:10:33;;;;;;;;;21.00;20.00;;;;;;;;5077501;27;45506;-71
2022/08/16 06:12:58;;;;;;;;;19.75;19.75;;;;;;;;5076624;27;46048;-71
2022/08/16 06:15:23;;;;;;;;;24.00;21.75;;;;;;;;5077222;28;45573;-71
2022/08/16 06:17:48;;;;;;;;;16.25;16.25;;;;;;;;5077170;27;45336;-72
2022/08/16 06:20:16;;;;;;;;;23.00;22.75;;;;;;;;5077388;27;45516;-75
2022/08/16 06:22:44;;;;;;;;;18.75;18.75;;;;;;;;5077520;27;47211;-72
2022/08/16 06:25:09;;;;;;;;;19.75;19.75;;;;;;;;5077180;27;45419;-72
2022/08/16 06:27:35;;;;;;;;;19.00;19.00;;;;;;;;5077457;27;45457;-71
2022/08/16 06:30:00;;;;;;;;;16.50;15.25;;;;;;;;5090928;27;45438;-72
2022/08/16 06:32:25;;;;;;;;;17.00;17.00;;;;;;;;5077350;27;46303;-72
2022/08/16 06:34:50;;;;;;;;;17.50;17.50;;;;;;;;5077491;27;45233;-72
2022/08/16 06:37:16;;;;;;;;;15.75;14.75;;;;;;;;5077612;27;45314;-72
2022/08/16 06:39:41;;;;;;;;;17.25;16.50;;;;;;;;5076918;27;45319;-72
2022/08/16 06:42:06;;;;;;;;;16.25;16.25;;;;;;;;5076756;27;45509;-72
2022/08/16 06:44:31;;;;;;;;;14.25;14.25;;;;;;;;5076902;27;45423;-72
2022/08/16 06:46:56;;;;;;;;;14.75;14.75;;;;;;;;5076980;27;45442;-72
2022/08/16 06:49:22;;;;;;;;;18.75;18.50;;;;;;;;5076974;28;45527;-71
2022/08/16 06:51:47;;;;;;;;;17.25;16.50;;;;;;;;5077068;27;47111;-72
2022/08/16 06:54:12;;;;;;;;;14.75;14.25;;;;;;;;5076892;27;45237;-72
2022/08/16 06:56:37;;;;;;;;;17.75;17.75;;;;;;;;5077169;27;45313;-71
2022/08/16 06:59:03;;;;;;;;;18.00;17.25;;;;;;;;5077410;27;45227;-72
2022/08/16 07:01:28;;;;;;;;;16.25;16.25;;;;;;;;5076354;27;45931;-71
2022/08/16 07:03:53;;;;;;;;;20.50;19.75;;;;;;;;5076814;27;45253;-72
2022/08/16 07:06:19;;;;;;;;;18.00;17.00;;;;;;;;5077028;27;45617;-72
2022/08/16 07:08:45;;;;;;;;;19.25;19.25;;;;;;;;5076986;27;45333;-71
2022/08/16 07:11:11;;;;;;;;;17.75;17.75;;;;;;;;5058704;28;47434;-71
2022/08/16 07:13:36;;;;;;;;;17.25;16.25;;;;;;;;5076364;27;45501;-71
2022/08/16 07:16:02;;;;;;;;;16.75;16.75;;;;;;;;5076584;28;45377;-71
2022/08/16 07:18:28;;;;;;;;;18.00;18.00;;;;;;;;5076990;27;45519;-72
2022/08/16 07:20:53;;;;;;;;;15.50;15.50;;;;;;;;5076684;27;46116;-72
2022/08/16 07:23:19;;;;;;;;;18.25;18.25;;;;;;;;5076455;27;45423;-72
2022/08/16 07:25:45;;;;;;;;;17.25;17.25;;;;;;;;5076779;27;45434;-72
2022/08/16 07:28:12;;;;;;;;;15.75;15.25;;;;;;;;5076558;27;45468;-71
2022/08/16 07:30:38;;;;;;;;;14.50;14.50;;;;;;;;5076177;27;46682;-72
2022/08/16 07:33:04;;;;;;;;;16.75;16.75;;;;;;;;5076446;27;45403;-72
2022/08/16 07:35:30;;;;;;;;;14.00;14.00;;;;;;;;5076426;28;45581;-71
2022/08/16 07:37:55;;;;;;;;;15.75;15.25;;;;;;;;5076537;27;45284;-71
2022/08/16 07:40:21;;;;;;;;;16.50;16.50;;;;;;;;5076577;27;46298;-71
2022/08/16 07:42:46;;;;;;;;;18.50;18.50;;;;;;;;5076277;27;45413;-71
2022/08/16 07:45:11;;;;;;;;;18.00;18.00;;;;;;;;5076099;28;45491;-71
2022/08/16 07:47:36;;;;;;;;;17.25;15.00;;;;;;;;5058280;28;45469;-71
2022/08/16 07:50:03;;;;;;;;;16.00;15.00;;;;;;;;5075552;27;46976;-71
2022/08/16 07:52:28;;;;;;;;;16.75;16.75;;;;;;;;5076261;27;45951;-71
2022/08/16 07:54:53;;;;;;;;;15.25;15.25;;;;;;;;5076012;27;45357;-72
2022/08/16 07:57:19;;;;;;;;;14.50;14.50;;;;;;;;5076230;28;45410;-71
2022/08/16 07:59:44;;;;;;;;;17.00;17.00;;;;;;;;5076363;27;45667;-72
2022/08/16 08:02:10;;;;;;;;;16.00;15.00;;;;;;;;5076595;27;45256;-72
2022/08/16 08:04:35;;;;;;;;;16.00;16.00;;;;;;;;5075942;27;45352;-72
2022/08/16 08:07:01;;;;;;;;;17.75;15.75;;;;;;;;5076129;27;45229;-72
2022/08/16 08:09:26;;;;;;;;;14.25;13.75;;;;;;;;5076125;28;46069;-72
2022/08/16 08:11:51;;;;;;;;;15.75;15.75;;;;;;;;5076713;27;45534;-71
2022/08/16 08:14:16;;;;;;;;;18.00;18.00;;;;;;;;5075865;28;45324;-72
2022/08/16 08:16:42;;;;;;;;;16.25;16.25;;;;;;;;5075909;28;45453;-72
2022/08/16 08:19:09;;;;;;;;;16.00;13.75;;;;;;;;5076042;27;45392;-72
2022/08/16 08:21:34;;;;;;;;;17.75;16.25;;;;;;;;5075957;27;45625;-71
2022/08/16 08:23:59;;;;;;;;;19.00;18.00;;;;;;;;5075755;27;45590;-71
2022/08/16 08:26:25;;;;;;;;;15.00;14.50;;;;;;;;5076085;28;45376;-71
2022/08/16 08:28:50;;;;;;;;;16.25;15.75;;;;;;;;5075631;27;45976;-72
2022/08/16 08:31:15;;;;;;;;;16.50;15.75;;;;;;;;5075905;27;45434;-71
2022/08/16 08:33:40;;;;;;;;;13.25;13.25;;;;;;;;5075915;28;45335;-71
2022/08/16 08:36:07;;;;;;;;;16.00;15.75;;;;;;;;5075424;27;45430;-72
2022/08/16 08:38:34;;;;;;;;;15.00;15.00;;;;;;;;5075543;27;47387;-72
2022/08/16 08:40:59;;;;;;;;;16.50;16.50;;;;;;;;5075143;28;45336;-71
2022/08/16 08:43:25;;;;;;;;;11.25;11.25;;;;;;;;5075406;27;45418;-72
2022/08/16 08:45:50;;;;;;;;;16.25;16.25;;;;;;;;5075491;27;45518;-71
2022/08/16 08:48:17;;;;;;;;;13.00;13.00;;;;;;;;5075359;27;46309;-71
2022/08/16 08:50:42;;;;;;;;;15.25;15.25;;;;;;;;5075693;28;45639;-72
2022/08/16 08:53:07;;;;;;;;;15.75;15.25;;;;;;;;5075268;27;45374;-72
2022/08/16 08:55:33;;;;;;;;;13.75;13.25;;;;;;;;5075432;28;45597;-72
2022/08/16 08:57:58;;;;;;;;;16.75;15.50;;;;;;;;5074558;27;46108;-72
2022/08/16 09:00:24;;;;;;;;;15.00;15.00;;;;;;;;5082477;27;45393;-72
2022/08/16 09:02:50;;;;;;;;;16.00;14.50;;;;;;;;5095726;27;45521;-72
2022/08/16 09:05:15;;;;;;;;;15.50;15.50;;;;;;;;5098686;27;45260;-71
2022/08/16 09:07:41;;;;;;;;;15.25;14.00;;;;;;;;5098938;27;45685;-72
2022/08/16 09:10:06;;;;;;;;;15.50;15.50;;;;;;;;5099391;27;45426;-72
2022/08/16 09:12:32;;;;;;;;;15.00;14.00;;;;;;;;5098653;27;45408;-71
2022/08/16 09:14:57;;;;;;;;;15.50;15.50;;;;;;;;5099204;27;45398;-71
2022/08/16 09:17:23;;;;;;;;;16.50;16.50;;;;;;;;5099033;27;46319;-71
2022/08/16 09:19:49;;;;;;;;;15.50;15.50;;;;;;;;5099096;27;45441;-71
2022/08/16 09:22:14;;;;;;;;;19.00;18.00;;;;;;;;5099131;27;45382;-71
2022/08/16 09:24:40;;;;;;;;;13.25;13.25;;;;;;;;5098819;27;45540;-71
2022/08/16 09:27:05;;;;;;;;;14.50;14.50;;;;;;;;5098621;27;45385;-72
2022/08/16 09:29:30;;;;;;;;;14.00;13.50;;;;;;;;5098729;27;45404;-72
2022/08/16 09:31:56;;;;;;;;;12.75;12.75;;;;;;;;5099010;27;45273;-72
2022/08/16 09:34:22;;;;;;;;;14.50;14.50;;;;;;;;5099069;27;45304;-72
2022/08/16 09:36:47;;;;;;;;;14.75;14.75;;;;;;;;5098538;27;46747;-71
2022/08/16 09:39:13;;;;;;;;;16.50;16.50;;;;;;;;5098955;27;45313;-72
2022/08/16 09:41:38;;;;;;;;;11.75;11.75;;;;;;;;5098486;27;45363;-72
2022/08/16 09:44:03;;;;;;;;;14.00;13.25;;;;;;;;5098987;27;45369;-72
2022/08/16 09:46:29;;;;;;;;;14.00;14.00;;;;;;;;5098437;27;47461;-72
2022/08/16 09:48:54;;;;;;;;;12.25;12.25;;;;;;;;5098391;27;45377;-72
2022/08/16 09:51:22;;;;;;;;;13.50;13.25;;;;;;;;5098923;27;45344;-72
2022/08/16 09:53:48;;;;;;;;;15.00;14.00;;;;;;;;5098553;27;45414;-72
2022/08/16 09:56:18;;;;;;;;;16.00;14.50;;;;;;;;5098156;27;47249;-72
2022/08/16 09:58:44;;;;;;;;;15.00;15.00;;;;;;;;5098709;27;45392;-72
2022/08/16 10:01:09;;;;;;;;;11.75;11.75;;;;;;;;5084690;27;45403;-72
2022/08/16 10:03:34;;;;;;;;;13.50;13.00;;;;;;;;5078013;27;45214;-72
2022/08/16 10:06:00;;;;;;;;;15.25;14.50;;;;;;;;5077970;27;45194;-71
2022/08/16 10:08:25;;;;;;;;;11.00;11.00;;;;;;;;5077643;27;45443;-71
2022/08/16 10:13:34;;;;;;;;;17.25;17.00;;;;;;;;5077491;27;45323;-72
2022/08/16 10:16:00;;;;;;;;;14.25;14.25;;;;;;;;5076273;27;46892;-72
2022/08/16 10:18:26;;;;;;;;;13.00;11.25;;;;;;;;5077803;27;45448;-72
2022/08/16 10:20:52;;;;;;;;;15.25;15.00;;;;;;;;5077706;27;45340;-72
2022/08/16 10:23:17;;;;;;;;;13.75;13.75;;;;;;;;5077477;27;45404;-72
2022/08/16 10:25:43;;;;;;;;;13.25;13.25;;;;;;;;5058855;28;48206;-72
2022/08/16 10:28:09;;;;;;;;;13.50;13.50;;;;;;;;5077219;27;45371;-72
2022/08/16 10:30:35;;;;;;;;;15.50;14.00;;;;;;;;5076828;27;45408;-72
2022/08/16 10:33:00;;;;;;;;;13.00;13.00;;;;;;;;5077586;27;45445;-72
2022/08/16 10:35:25;;;;;;;;;12.75;12.50;;;;;;;;5077480;27;46889;-72
2022/08/16 10:37:51;;;;;;;;;12.25;12.25;;;;;;;;5077431;27;45364;-72
2022/08/16 10:40:17;;;;;;;;;11.25;11.25;;;;;;;;5077249;27;45250;-71
2022/08/16 10:42:42;;;;;;;;;13.25;12.75;;;;;;;;5077463;27;45356;-72
2022/08/16 10:45:07;;;;;;;;;14.00;13.75;;;;;;;;5076984;27;47093;-72
2022/08/16 10:47:34;;;;;;;;;12.50;12.50;;;;;;;;5077201;27;45281;-72
2022/08/16 10:49:59;;;;;;;;;13.25;12.75;;;;;;;;5077139;27;45293;-71
2022/08/16 10:52:24;;;;;;;;;12.75;12.75;;;;;;;;5077225;27;45398;-72
2022/08/16 10:54:50;;;;;;;;;12.00;12.00;;;;;;;;5076405;27;47366;-72
2022/08/16 10:57:15;;;;;;;;;16.50;15.75;;;;;;;;5076923;27;45380;-72
2022/08/16 10:59:40;;;;;;;;;12.00;12.00;;;;;;;;5076989;27;45450;-71
2022/08/16 11:02:07;;;;;;;;;12.00;12.00;;;;;;;;5077367;27;45480;-72
2022/08/16 11:04:33;;;;;;;;;14.25;14.25;;;;;;;;5077097;27;46048;-72
2022/08/16 11:06:58;;;;;;;;;12.50;12.50;;;;;;;;5076635;27;45495;-71
2022/08/16 11:09:23;;;;;;;;;14.25;14.25;;;;;;;;5076953;27;45301;-71
2022/08/16 11:11:48;;;;;;;;;12.50;12.50;;;;;;;;5076236;27;45743;-71
2022/08/16 11:14:15;;;;;;;;;12.25;11.25;;;;;;;;5076768;28;45418;-71
2022/08/16 11:16:41;;;;;;;;;12.00;12.00;;;;;;;;5076565;27;45403;-72
2022/08/16 11:19:06;;;;;;;;;12.50;12.50;;;;;;;;5076681;28;45284;-71
2022/08/16 11:21:31;;;;;;;;;14.75;14.75;;;;;;;;5076870;27;45434;-71
2022/08/16 11:23:56;;;;;;;;;12.50;12.50;;;;;;;;5075804;27;46905;-71
2022/08/16 11:26:22;;;;;;;;;11.75;11.75;;;;;;;;5057929;28;45477;-72
2022/08/16 11:28:49;;;;;;;;;10.75;10.25;;;;;;;;5076658;27;45534;-71
2022/08/16 11:31:14;;;;;;;;;14.00;12.25;;;;;;;;5076671;27;45509;-72
2022/08/16 11:33:39;;;;;;;;;15.00;13.00;;;;;;;;5076023;28;47011;-71
2022/08/16 11:36:05;;;;;;;;;12.75;12.75;;;;;;;;5076123;28;45589;-72
2022/08/16 11:38:30;;;;;;;;;12.75;12.25;;;;;;;;5076421;27;45798;-71
2022/08/16 11:40:57;;;;;;;;;14.25;13.50;;;;;;;;5076601;28;45355;-71
2022/08/16 11:43:27;;;;;;;;;11.50;11.50;;;;;;;;5068159;27;45395;-71
2022/08/16 11:45:53;;;;;;;;;13.50;13.00;;;;;;;;5075931;27;45507;-72
2022/08/16 11:48:18;;;;;;;;;13.00;12.50;;;;;;;;5076163;27;45273;-71
2022/08/16 11:50:44;;;;;;;;;14.00;14.00;;;;;;;;5076344;27;45394;-71
2022/08/16 11:53:10;;;;;;;;;13.25;12.00;;;;;;;;5075722;27;47094;-72
2022/08/16 11:55:36;;;;;;;;;14.00;13.00;;;;;;;;5076158;27;45458;-71
2022/08/16 11:58:02;;;;;;;;;13.25;13.25;;;;;;;;5076289;28;45273;-72
2022/08/16 12:00:29;;;;;;;;;13.75;13.00;;;;;;;;5076410;27;45529;-71
2022/08/16 12:02:54;;;;;;;;;11.50;11.50;;;;;;;;5076176;27;46130;-71
2022/08/16 12:05:19;;;;;;;;;11.00;9.50;;;;;;;;5076138;27;45423;-71
2022/08/16 12:07:45;;;;;;;;;12.00;11.25;;;;;;;;5076149;28;45453;-72
2022/08/16 12:10:13;;;;;;;;;13.25;13.25;;;;;;;;5076173;28;45662;-71
2022/08/16 12:12:39;;;;;;;;;10.50;10.50;;;;;;;;5075350;27;47374;-71
2022/08/16 12:15:05;;;;;;;;;11.75;11.75;;;;;;;;5075819;27;45295;-71
2022/08/16 12:17:30;;;;;;;;;11.50;11.50;;;;;;;;5076325;27;45210;-71
2022/08/16 12:19:56;;;;;;;;;12.00;12.00;;;;;;;;5058087;28;45598;-72
2022/08/16 12:22:23;;;;;;;;;12.50;11.50;;;;;;;;5075239;27;45930;-72
2022/08/16 12:24:48;;;;;;;;;11.00;11.00;;;;;;;;5075860;27;45382;-72
2022/08/16 12:27:13;;;;;;;;;12.75;12.00;;;;;;;;5075821;27;45308;-72
2022/08/16 12:29:39;;;;;;;;;13.25;13.25;;;;;;;;5057731;28;45330;-71
2022/08/16 12:32:04;;;;;;;;;11.00;11.00;;;;;;;;5075397;27;46217;-72
2022/08/16 12:34:29;;;;;;;;;12.00;12.00;;;;;;;;5075561;28;45442;-72
2022/08/16 12:36:55;;;;;;;;;11.50;11.50;;;;;;;;5040254;28;45567;-72
2022/08/16 12:39:20;;;;;;;;;10.00;10.00;;;;;;;;5074358;28;45286;-72
2022/08/16 12:41:45;;;;;;;;;10.75;10.75;;;;;;;;5075401;27;45526;-72
2022/08/16 12:44:11;;;;;;;;;13.75;13.25;;;;;;;;5075655;27;45428;-72
2022/08/16 12:46:37;;;;;;;;;13.00;12.75;;;;;;;;5075188;27;45323;-72
2022/08/16 12:49:04;;;;;;;;;13.00;12.50;;;;;;;;5075652;27;45505;-72
2022/08/16 12:51:31;;;;;;;;;12.25;12.25;;;;;;;;5075011;28;46931;-72
2022/08/16 12:53:57;;;;;;;;;14.50;13.25;;;;;;;;5075276;28;45636;-71
2022/08/16 12:56:24;;;;;;;;;12.50;11.75;;;;;;;;5075477;27;45462;-72
2022/08/16 12:58:50;;;;;;;;;14.50;13.75;;;;;;;;5075639;28;45339;-72
2022/08/16 13:01:16;;;;;;;;;13.75;13.75;;;;;;;;5075275;27;47109;-71
2022/08/16 13:03:42;;;;;;;;;14.00;13.50;;;;;;;;5074903;28;45502;-72
2022/08/16 13:06:08;;;;;;;;;13.75;12.00;;;;;;;;5075224;27;45277;-72
2022/08/16 13:08:34;;;;;;;;;14.00;14.00;;;;;;;;5075358;27;45399;-71
2022/08/16 13:11:00;;;;;;;;;14.25;14.25;;;;;;;;5074921;28;47146;-72
2022/08/16 13:13:25;;;;;;;;;14.75;14.75;;;;;;;;5074797;27;45477;-71
2022/08/16 13:15:54;;;;;;;;;13.25;13.25;;;;;;;;5075397;27;45396;-72
2022/08/16 13:18:20;;;;;;;;;11.00;11.00;;;;;;;;5075096;27;46067;-71
2022/08/16 13:20:45;;;;;;;;;13.00;12.25;;;;;;;;5074428;28;46314;-71
2022/08/16 13:23:11;;;;;;;;;13.50;13.00;;;;;;;;5075112;28;45342;-71
2022/08/16 13:25:37;;;;;;;;;14.25;13.50;;;;;;;;5074910;27;45436;-72
2022/08/16 13:28:03;;;;;;;;;15.50;14.50;;;;;;;;5075230;27;45445;-72
2022/08/16 13:30:29;;;;;;;;;14.00;14.00;;;;;;;;5074540;28;47414;-72
2022/08/16 13:32:54;;;;;;;;;12.50;12.50;;;;;;;;5074660;28;45371;-71
2022/08/16 13:35:25;;;;;;;;;16.75;15.00;;;;;;;;5075070;28;45408;-71
2022/08/16 13:37:50;;;;;;;;;12.50;12.50;;;;;;;;5074691;27;45318;-71
2022/08/16 13:40:16;;;;;;;;;14.50;12.25;;;;;;;;5074564;27;47200;-71
2022/08/16 13:42:41;;;;;;;;;12.75;12.75;;;;;;;;5074749;28;45423;-72
2022/08/16 13:45:07;;;;;;;;;14.00;14.00;;;;;;;;5074782;28;45997;-71
2022/08/16 13:47:33;;;;;;;;;15.25;14.50;;;;;;;;5074661;28;45582;-71
2022/08/16 13:49:58;;;;;;;;;12.25;12.25;;;;;;;;5075427;27;46915;-71
2022/08/16 13:52:24;;;;;;;;;14.00;14.00;;;;;;;;5078428;27;45396;-71
2022/08/16 13:54:49;;;;;;;;;15.25;14.25;;;;;;;;5077954;27;45523;-71
2022/08/16 13:57:14;;;;;;;;;11.25;11.25;;;;;;;;5078124;27;45372;-71
2022/08/16 13:59:41;;;;;;;;;14.00;14.00;;;;;;;;5077401;27;46094;-71
2022/08/16 14:02:07;;;;;;;;;13.50;12.50;;;;;;;;5077872;28;45375;-71
2022/08/16 14:04:34;;;;;;;;;13.00;13.00;;;;;;;;5078038;27;45355;-72
2022/08/16 14:07:01;;;;;;;;;11.25;11.25;;;;;;;;5077878;27;45377;-71
2022/08/16 14:09:27;;;;;;;;;12.50;12.50;;;;;;;;5077778;27;45497;-71